Time;durP1;ratioP1;P1;durP2;ratioP2;P2;SDS_P1;SDS_P2;PMS_P1;PMS_P2;Temp;Humidity;BMP_temperature;BMP_pressure;BME280_temperature;BME280_humidity;BME280_pressure;Samples;Min_cycle;Max_cycle;Signal;HPM_P1;HPM_P2
2023/09/27 00:00:10;;;;;;;6.40;2.77;;;13.60;99.90;;;;;;4973673;28;20202;-77
2023/09/27 00:02:39;;;;;;;3.07;2.50;;;13.60;99.90;;;;;;4973645;28;20197;-77
2023/09/27 00:05:06;;;;;;;5.70;2.83;;;13.40;99.90;;;;;;4973662;28;20531;-77
2023/09/27 00:07:36;;;;;;;4.13;2.80;;;13.40;99.90;;;;;;4972268;28;20185;-77
2023/09/27 00:10:02;;;;;;;6.00;2.70;;;13.50;99.90;;;;;;4973372;28;20194;-77
2023/09/27 00:12:28;;;;;;;3.73;3.20;;;13.40;99.90;;;;;;4973419;28;20202;-77
2023/09/27 00:14:55;;;;;;;6.80;2.80;;;13.40;99.90;;;;;;4973491;28;20170;-77
2023/09/27 00:17:21;;;;;;;6.10;3.00;;;13.40;99.90;;;;;;4973518;28;20170;-77
2023/09/27 00:19:47;;;;;;;7.13;2.90;;;13.40;99.90;;;;;;4972021;28;20274;-77
2023/09/27 00:22:12;;;;;;;5.63;3.00;;;13.40;99.90;;;;;;4973286;28;20310;-77
2023/09/27 00:24:39;;;;;;;4.07;2.90;;;13.40;99.90;;;;;;4973284;28;20586;-77
2023/09/27 00:27:04;;;;;;;5.40;2.70;;;13.30;99.90;;;;;;4971917;28;20184;-77
2023/09/27 00:29:30;;;;;;;9.07;3.57;;;13.30;99.90;;;;;;4972454;28;20288;-77
2023/09/27 00:31:56;;;;;;;6.40;3.07;;;13.30;99.90;;;;;;4973374;28;20677;-77
2023/09/27 00:34:22;;;;;;;5.40;2.90;;;13.30;99.90;;;;;;4971751;28;20210;-76
2023/09/27 00:36:47;;;;;;;7.70;3.30;;;13.20;99.90;;;;;;4971778;28;20210;-77
2023/09/27 00:39:14;;;;;;;5.80;2.73;;;13.20;99.90;;;;;;4973121;28;20513;-77
2023/09/27 00:41:40;;;;;;;7.53;3.37;;;13.30;99.90;;;;;;4973291;28;20198;-77
2023/09/27 00:44:05;;;;;;;6.10;3.13;;;13.20;99.90;;;;;;4973065;28;20170;-77
2023/09/27 00:46:32;;;;;;;6.40;3.13;;;13.20;99.90;;;;;;4973228;28;20197;-77
2023/09/27 00:48:58;;;;;;;5.40;2.90;;;13.20;99.90;;;;;;4971688;28;20249;-76
2023/09/27 00:51:24;;;;;;;8.13;3.70;;;13.20;99.90;;;;;;4971781;28;20233;-77
2023/09/27 00:53:52;;;;;;;5.60;3.13;;;13.20;99.90;;;;;;4973128;28;20673;-76
2023/09/27 00:56:18;;;;;;;3.83;3.43;;;13.20;99.90;;;;;;4971766;28;20193;-77
2023/09/27 00:58:44;;;;;;;7.63;3.33;;;13.20;99.90;;;;;;4972982;28;20661;-77
2023/09/27 01:01:12;;;;;;;6.73;3.37;;;13.10;99.90;;;;;;4971617;28;20206;-77
2023/09/27 01:03:38;;;;;;;5.13;3.07;;;13.20;99.90;;;;;;4971637;28;20562;-77
2023/09/27 01:06:03;;;;;;;4.17;2.80;;;13.10;99.90;;;;;;4973008;28;20181;-77
2023/09/27 01:08:29;;;;;;;8.90;3.30;;;13.10;99.90;;;;;;4973257;28;20186;-77
2023/09/27 01:10:55;;;;;;;9.23;3.50;;;13.10;99.90;;;;;;4972795;28;20210;-77
2023/09/27 01:13:21;;;;;;;5.57;3.00;;;13.10;99.90;;;;;;4972825;28;20758;-76
2023/09/27 01:15:47;;;;;;;4.63;3.07;;;13.10;99.90;;;;;;4972842;28;20173;-77
2023/09/27 01:18:13;;;;;;;5.53;3.17;;;13.10;99.90;;;;;;4973029;28;20201;-77
2023/09/27 01:20:38;;;;;;;3.93;3.27;;;13.00;99.90;;;;;;4972769;28;20370;-77
2023/09/27 01:23:05;;;;;;;5.10;2.93;;;13.00;99.90;;;;;;4974382;28;20241;-74
2023/09/27 01:25:33;;;;;;;7.80;2.80;;;13.00;99.90;;;;;;4976701;28;20202;-75
2023/09/27 01:28:00;;;;;;;7.20;2.80;;;13.00;99.90;;;;;;4975159;28;20178;-75
2023/09/27 01:30:31;;;;;;;6.07;2.93;;;13.00;99.90;;;;;;4976220;28;20202;-74
2023/09/27 01:33:08;;;;;;;6.77;2.83;;;13.00;99.90;;;;;;4975056;28;20190;-75
2023/09/27 01:35:34;;;;;;;8.83;3.07;;;13.00;99.90;;;;;;4975133;28;20166;-75
2023/09/27 01:38:00;;;;;;;5.67;3.23;;;13.00;99.90;;;;;;4974913;28;20190;-75
2023/09/27 01:40:30;;;;;;;7.83;3.80;;;13.00;99.90;;;;;;4974907;28;20179;-75
2023/09/27 01:43:02;;;;;;;3.63;3.00;;;13.00;99.90;;;;;;4974937;28;20198;-75
2023/09/27 01:45:31;;;;;;;4.93;3.03;;;13.00;99.90;;;;;;4976125;28;20167;-75
2023/09/27 01:47:57;;;;;;;7.77;3.17;;;12.90;99.90;;;;;;4976426;28;20174;-74
2023/09/27 01:50:24;;;;;;;6.37;3.40;;;12.90;99.90;;;;;;4975785;28;20206;-74
2023/09/27 01:52:54;;;;;;;6.13;3.50;;;12.90;99.90;;;;;;4974479;28;20194;-74
2023/09/27 01:55:21;;;;;;;7.03;3.40;;;12.90;99.90;;;;;;4972653;28;20785;-75
2023/09/27 01:57:47;;;;;;;9.17;3.30;;;12.90;99.90;;;;;;4974277;28;20224;-75
2023/09/27 02:00:17;;;;;;;8.60;3.67;;;12.90;99.90;;;;;;4974116;28;20187;-74
2023/09/27 02:02:57;;;;;;;6.03;3.73;;;12.90;99.90;;;;;;4974137;28;20249;-77
2023/09/27 02:05:23;;;;;;;7.10;3.90;;;12.80;99.90;;;;;;4974422;28;20186;-77
2023/09/27 02:07:48;;;;;;;6.97;4.30;;;12.80;99.90;;;;;;4975433;28;20197;-77
2023/09/27 02:10:14;;;;;;;7.43;3.53;;;12.80;99.90;;;;;;4973860;28;20693;-77
2023/09/27 02:12:40;;;;;;;7.77;3.90;;;12.80;99.90;;;;;;4975495;28;20200;-77
2023/09/27 02:15:07;;;;;;;7.13;3.87;;;12.80;99.90;;;;;;4974169;28;20190;-77
2023/09/27 02:17:33;;;;;;;4.37;3.80;;;12.70;99.90;;;;;;4973254;28;20581;-77
2023/09/27 02:19:58;;;;;;;5.20;3.67;;;12.70;99.90;;;;;;4975439;28;20213;-77
2023/09/27 02:22:24;;;;;;;6.47;3.83;;;12.70;99.90;;;;;;4974016;28;20567;-77
2023/09/27 02:24:50;;;;;;;6.17;3.80;;;12.60;99.90;;;;;;4975585;28;20276;-77
2023/09/27 02:27:15;;;;;;;6.17;3.77;;;12.60;99.90;;;;;;4975498;28;20705;-77
2023/09/27 02:29:42;;;;;;;4.67;3.17;;;12.60;99.90;;;;;;4975325;28;20198;-77
2023/09/27 02:32:08;;;;;;;6.50;3.67;;;12.50;99.90;;;;;;4974307;28;20210;-77
2023/09/27 02:34:35;;;;;;;6.07;3.37;;;12.50;99.90;;;;;;4972627;28;20312;-77
2023/09/27 02:37:00;;;;;;;6.30;3.87;;;12.40;99.90;;;;;;4973877;28;20174;-77
2023/09/27 02:39:26;;;;;;;6.37;3.83;;;12.40;99.90;;;;;;4973607;28;20197;-77
2023/09/27 02:41:52;;;;;;;8.17;4.07;;;12.30;99.90;;;;;;4975502;28;20197;-77
2023/09/27 02:44:17;;;;;;;5.43;3.83;;;12.40;99.90;;;;;;4973972;28;20177;-77
2023/09/27 02:46:44;;;;;;;4.37;3.70;;;12.30;99.90;;;;;;4973984;28;20197;-77
2023/09/27 02:49:10;;;;;;;5.97;3.90;;;12.30;99.90;;;;;;4973310;28;20201;-77
2023/09/27 02:51:37;;;;;;;6.07;3.37;;;12.30;99.90;;;;;;4973299;28;20662;-76
2023/09/27 02:54:03;;;;;;;6.90;3.70;;;12.30;99.90;;;;;;4974683;28;20218;-76
2023/09/27 02:56:28;;;;;;;8.40;4.00;;;12.30;99.90;;;;;;4973170;28;20237;-76
2023/09/27 02:58:54;;;;;;;9.03;4.43;;;12.30;99.90;;;;;;4974603;28;20249;-77
2023/09/27 03:01:19;;;;;;;6.20;3.70;;;12.20;99.90;;;;;;4973117;28;20260;-76
2023/09/27 03:03:46;;;;;;;8.83;4.10;;;12.20;99.90;;;;;;4972223;28;20214;-76
2023/09/27 03:06:14;;;;;;;5.53;4.03;;;12.20;99.90;;;;;;4974263;28;20644;-77
2023/09/27 03:08:42;;;;;;;4.80;3.93;;;12.20;99.90;;;;;;4973072;28;20179;-77
2023/09/27 03:11:12;;;;;;;6.67;4.00;;;12.20;99.90;;;;;;4972955;28;20622;-77
2023/09/27 03:13:38;;;;;;;6.67;4.57;;;12.10;99.90;;;;;;4972932;28;20474;-77
2023/09/27 03:16:04;;;;;;;7.77;4.17;;;12.10;99.90;;;;;;4974239;28;20619;-77
2023/09/27 03:18:31;;;;;;;6.23;3.73;;;12.10;99.90;;;;;;4974191;28;20185;-77
2023/09/27 03:20:57;;;;;;;8.83;4.47;;;12.10;99.90;;;;;;4971588;28;20666;-76
2023/09/27 03:23:22;;;;;;;5.20;4.13;;;12.20;99.90;;;;;;4972535;28;20202;-77
2023/09/27 03:25:49;;;;;;;6.03;3.60;;;12.10;99.90;;;;;;4972572;28;20574;-76
2023/09/27 03:28:15;;;;;;;7.80;4.27;;;12.10;99.90;;;;;;4974265;28;20241;-77
2023/09/27 03:30:40;;;;;;;4.50;4.10;;;12.10;99.90;;;;;;4972618;28;20541;-76
2023/09/27 03:33:06;;;;;;;4.90;3.70;;;12.10;99.90;;;;;;4972540;28;20224;-77
2023/09/27 03:35:32;;;;;;;5.40;3.83;;;12.10;99.90;;;;;;4974018;28;20202;-76
2023/09/27 03:37:57;;;;;;;5.77;3.80;;;12.10;99.90;;;;;;4973983;28;20186;-77
2023/09/27 03:40:23;;;;;;;5.33;3.90;;;12.10;99.90;;;;;;4974398;28;20194;-77
2023/09/27 03:42:49;;;;;;;7.00;3.70;;;12.10;99.90;;;;;;4973667;28;20209;-76
2023/09/27 03:45:15;;;;;;;9.23;3.47;;;12.10;99.90;;;;;;4971871;28;20189;-76
2023/09/27 03:47:44;;;;;;;6.40;4.13;;;12.10;99.90;;;;;;4973790;28;20194;-76
2023/09/27 03:50:10;;;;;;;6.67;4.20;;;12.10;99.90;;;;;;4972265;28;20217;-77
2023/09/27 03:52:36;;;;;;;6.10;3.80;;;12.10;99.90;;;;;;4973671;28;20182;-76
2023/09/27 03:55:01;;;;;;;4.20;3.50;;;12.10;99.90;;;;;;4972282;28;20178;-76
2023/09/27 03:57:27;;;;;;;4.93;3.50;;;12.10;99.90;;;;;;4973890;28;20622;-77
2023/09/27 03:59:53;;;;;;;9.20;3.10;;;12.00;99.90;;;;;;4973573;28;20170;-77
2023/09/27 04:02:18;;;;;;;11.17;4.00;;;12.00;99.90;;;;;;4972094;28;20222;-77
2023/09/27 04:04:44;;;;;;;5.77;3.73;;;12.00;99.90;;;;;;4972328;28;20178;-76
2023/09/27 04:07:09;;;;;;;7.37;4.13;;;12.10;99.90;;;;;;4973427;28;20192;-77
2023/09/27 04:09:35;;;;;;;8.77;3.37;;;12.00;99.90;;;;;;4973256;28;20657;-76
2023/09/27 04:12:00;;;;;;;4.23;3.50;;;12.00;99.90;;;;;;4971963;28;20225;-77
2023/09/27 04:14:26;;;;;;;5.90;3.63;;;12.00;99.90;;;;;;4973429;28;20213;-76
2023/09/27 04:16:51;;;;;;;7.23;4.07;;;12.00;99.90;;;;;;4972035;28;20174;-76
2023/09/27 04:19:17;;;;;;;7.57;4.20;;;12.00;99.90;;;;;;4973277;28;20238;-77
2023/09/27 04:21:42;;;;;;;4.57;3.37;;;12.00;99.90;;;;;;4973408;28;20249;-76
2023/09/27 04:24:08;;;;;;;5.10;3.50;;;12.00;99.90;;;;;;4972298;28;20174;-77
2023/09/27 04:26:34;;;;;;;7.97;3.63;;;11.90;99.90;;;;;;4971822;28;20190;-76
2023/09/27 04:29:00;;;;;;;6.67;3.53;;;11.90;99.90;;;;;;4972081;28;20201;-78
2023/09/27 04:31:26;;;;;;;7.03;4.23;;;11.90;99.90;;;;;;4973123;28;20206;-77
2023/09/27 04:33:51;;;;;;;5.63;3.57;;;11.90;99.90;;;;;;4973299;28;20523;-78
2023/09/27 04:36:17;;;;;;;3.63;3.30;;;12.00;99.90;;;;;;4973476;28;20178;-77
2023/09/27 04:38:47;;;;;;;4.97;3.97;;;12.00;99.90;;;;;;4973155;28;20213;-77
2023/09/27 04:41:17;;;;;;;4.87;3.90;;;12.00;99.90;;;;;;4971806;28;20245;-77
2023/09/27 04:43:44;;;;;;;7.50;4.60;;;11.90;99.90;;;;;;4973502;28;20201;-76
2023/09/27 04:46:45;;;;;;;9.60;4.30;;;11.90;99.90;;;;;;4973265;28;20265;-77
2023/09/27 04:49:10;;;;;;;9.47;4.10;;;11.80;99.90;;;;;;4967098;28;20213;-77
2023/09/27 04:51:36;;;;;;;6.27;4.13;;;11.80;99.90;;;;;;4971509;28;21001;-77
2023/09/27 04:54:03;;;;;;;7.57;4.10;;;11.80;99.90;;;;;;4973389;28;20669;-77
2023/09/27 04:56:29;;;;;;;3.63;3.33;;;11.80;99.90;;;;;;4973327;28;20170;-76
2023/09/27 04:58:56;;;;;;;8.00;3.77;;;11.80;99.90;;;;;;4976299;28;20167;-77
2023/09/27 05:01:22;;;;;;;7.13;3.50;;;11.80;99.90;;;;;;4977057;28;20189;-77
2023/09/27 05:03:48;;;;;;;5.73;3.67;;;11.80;99.90;;;;;;4975669;28;20178;-79
2023/09/27 05:06:14;;;;;;;5.77;3.43;;;11.80;99.90;;;;;;4977064;28;20237;-77
2023/09/27 05:08:40;;;;;;;4.67;3.23;;;11.80;99.90;;;;;;4975655;28;20654;-77
2023/09/27 05:11:05;;;;;;;6.03;3.43;;;11.80;99.90;;;;;;4974821;28;20234;-77
2023/09/27 05:13:31;;;;;;;8.23;3.90;;;11.80;99.90;;;;;;4976237;28;20209;-77
2023/09/27 05:15:56;;;;;;;7.17;3.80;;;11.80;99.90;;;;;;4974652;28;20178;-77
2023/09/27 05:18:25;;;;;;;5.60;3.87;;;11.70;99.90;;;;;;4975604;28;20182;-77
2023/09/27 05:20:50;;;;;;;6.03;3.63;;;11.80;99.90;;;;;;4975341;28;20181;-77
2023/09/27 05:23:16;;;;;;;7.47;3.70;;;11.80;99.90;;;;;;4976623;28;20274;-77
2023/09/27 05:25:42;;;;;;;4.10;3.60;;;11.70;99.90;;;;;;4975463;28;20228;-77
2023/09/27 05:28:09;;;;;;;14.97;4.43;;;11.70;99.90;;;;;;4976588;28;20261;-77
2023/09/27 05:30:34;;;;;;;5.40;3.60;;;11.60;99.90;;;;;;4976762;28;20198;-77
2023/09/27 05:33:00;;;;;;;5.20;3.97;;;11.60;99.90;;;;;;4975643;28;20205;-78
2023/09/27 05:35:25;;;;;;;8.53;3.40;;;11.60;99.90;;;;;;4977136;28;20170;-78
2023/09/27 05:37:51;;;;;;;4.63;3.67;;;11.60;99.90;;;;;;4975212;28;20209;-78
2023/09/27 05:40:16;;;;;;;4.20;3.80;;;11.60;99.90;;;;;;4976506;28;20190;-78
2023/09/27 05:42:42;;;;;;;6.60;3.73;;;11.60;99.90;;;;;;4976632;28;20253;-78
2023/09/27 05:45:11;;;;;;;5.87;3.47;;;11.60;99.90;;;;;;4976581;28;20185;-79
2023/09/27 05:47:37;;;;;;;5.17;3.83;;;11.60;99.90;;;;;;4975020;28;20713;-77
2023/09/27 05:50:04;;;;;;;5.63;3.80;;;11.60;99.90;;;;;;4974828;28;20752;-77
2023/09/27 05:52:34;;;;;;;4.37;3.97;;;11.50;99.90;;;;;;4974877;28;20206;-76
2023/09/27 05:54:59;;;;;;;8.13;4.40;;;11.50;99.90;;;;;;4976342;28;20171;-78
2023/09/27 05:57:25;;;;;;;6.87;4.23;;;11.60;99.90;;;;;;4976836;28;20246;-77
2023/09/27 05:59:51;;;;;;;6.67;4.57;;;11.60;99.90;;;;;;4975094;28;20178;-77
2023/09/27 06:02:16;;;;;;;5.27;4.77;;;11.60;99.90;;;;;;4974927;28;20760;-79
2023/09/27 06:04:48;;;;;;;5.93;4.07;;;11.60;99.90;;;;;;4976309;28;20630;-79
2023/09/27 06:07:15;;;;;;;6.33;4.87;;;11.60;99.90;;;;;;4976015;28;20178;-77
2023/09/27 06:09:41;;;;;;;6.60;4.23;;;11.70;99.90;;;;;;4975345;28;20198;-77
2023/09/27 06:12:07;;;;;;;5.30;4.30;;;11.70;99.90;;;;;;4975896;28;20191;-77
2023/09/27 06:14:34;;;;;;;6.80;4.37;;;11.70;99.90;;;;;;4974450;28;20175;-77
2023/09/27 06:16:59;;;;;;;5.77;4.40;;;11.70;99.90;;;;;;4975874;28;20174;-77
2023/09/27 06:19:25;;;;;;;5.87;4.90;;;11.70;99.90;;;;;;4974772;28;20211;-77
2023/09/27 06:21:51;;;;;;;5.10;4.37;;;11.80;99.90;;;;;;4975562;28;20191;-77
2023/09/27 06:24:17;;;;;;;6.13;4.53;;;11.90;99.90;;;;;;4975722;28;20169;-77
2023/09/27 06:26:42;;;;;;;7.63;4.30;;;11.90;99.90;;;;;;4974210;28;20678;-77
2023/09/27 06:29:09;;;;;;;4.47;3.83;;;11.90;99.90;;;;;;4975610;28;20174;-79
2023/09/27 06:31:35;;;;;;;4.60;4.17;;;12.00;99.90;;;;;;4975679;28;20230;-77
2023/09/27 06:34:01;;;;;;;8.00;4.43;;;12.00;99.90;;;;;;4975975;28;20264;-76
2023/09/27 06:36:29;;;;;;;5.57;4.50;;;12.00;99.90;;;;;;4975040;28;20206;-76
2023/09/27 06:38:55;;;;;;;7.63;4.60;;;12.10;99.90;;;;;;4973969;28;20252;-77
2023/09/27 06:41:21;;;;;;;7.37;4.37;;;12.10;99.90;;;;;;4973633;28;20198;-77
2023/09/27 06:43:47;;;;;;;5.23;4.23;;;12.10;99.90;;;;;;4974951;28;20186;-77
2023/09/27 06:46:15;;;;;;;5.00;3.80;;;12.10;99.90;;;;;;4975143;28;20174;-76
2023/09/27 06:48:41;;;;;;;5.60;4.10;;;12.20;99.90;;;;;;4974967;28;20174;-76
2023/09/27 06:51:07;;;;;;;4.83;4.00;;;12.10;99.90;;;;;;4974731;28;20584;-78
2023/09/27 06:53:33;;;;;;;4.90;4.47;;;12.20;99.90;;;;;;4974999;28;20237;-77
2023/09/27 06:55:59;;;;;;;5.30;4.17;;;12.20;99.90;;;;;;4973480;28;20183;-76
2023/09/27 06:58:25;;;;;;;5.93;4.27;;;12.20;99.90;;;;;;4973297;28;20182;-77
2023/09/27 07:00:52;;;;;;;4.97;4.40;;;12.30;99.90;;;;;;4974711;28;20178;-77
2023/09/27 07:03:19;;;;;;;5.30;4.43;;;12.30;99.90;;;;;;4974470;28;20209;-76
2023/09/27 07:05:46;;;;;;;7.37;4.60;;;12.30;99.90;;;;;;4974536;28;20178;-76
2023/09/27 07:08:12;;;;;;;10.80;5.53;;;12.30;99.90;;;;;;4973191;28;20206;-76
2023/09/27 07:10:37;;;;;;;9.63;5.10;;;12.40;99.90;;;;;;4973055;28;20205;-76
2023/09/27 07:13:03;;;;;;;6.07;4.40;;;12.40;99.90;;;;;;4973088;28;20789;-77
2023/09/27 07:15:31;;;;;;;7.00;5.90;;;12.50;99.90;;;;;;4973085;28;20174;-76
2023/09/27 07:17:57;;;;;;;9.23;5.43;;;12.50;99.90;;;;;;4974616;28;20520;-76
2023/09/27 07:20:28;;;;;;;6.73;5.40;;;12.60;99.90;;;;;;4973624;28;20188;-76
2023/09/27 07:22:55;;;;;;;4.97;4.57;;;12.60;99.90;;;;;;4974279;28;20198;-76
2023/09/27 07:25:21;;;;;;;7.80;4.87;;;12.70;99.90;;;;;;4974283;28;20258;-76
2023/09/27 07:27:48;;;;;;;5.67;4.57;;;12.70;99.90;;;;;;4972952;28;20692;-76
2023/09/27 07:30:18;;;;;;;7.13;5.10;;;12.80;99.90;;;;;;4974191;28;20682;-76
2023/09/27 07:32:45;;;;;;;6.17;5.40;;;12.80;99.90;;;;;;4974045;28;20213;-76
2023/09/27 07:35:13;;;;;;;5.83;5.20;;;12.90;99.90;;;;;;4973869;28;20178;-76
2023/09/27 07:37:39;;;;;;;6.40;5.57;;;12.90;99.90;;;;;;4972312;28;20264;-76
2023/09/27 07:40:11;;;;;;;5.93;5.10;;;13.00;99.90;;;;;;4973776;28;20166;-76
2023/09/27 07:42:44;;;;;;;9.30;6.83;;;13.10;99.90;;;;;;4972278;28;20257;-76
2023/09/27 07:45:25;;;;;;;8.43;7.43;;;13.30;99.90;;;;;;4973585;28;20178;-76
2023/09/27 07:47:54;;;;;;;10.83;8.50;;;13.40;99.90;;;;;;4974157;28;20174;-76
2023/09/27 07:50:21;;;;;;;9.87;8.20;;;13.60;99.90;;;;;;4972408;28;20224;-76
2023/09/27 07:52:47;;;;;;;8.83;7.17;;;13.70;99.90;;;;;;4974180;28;20197;-76
2023/09/27 07:55:14;;;;;;;8.37;7.43;;;13.80;99.90;;;;;;4972758;28;20364;-76
2023/09/27 07:57:46;;;;;;;8.10;7.30;;;13.90;99.90;;;;;;4974349;28;20181;-76
2023/09/27 08:00:15;;;;;;;9.93;8.23;;;14.00;99.90;;;;;;4972742;28;20704;-76
2023/09/27 08:02:43;;;;;;;14.33;8.50;;;14.20;99.90;;;;;;4972602;28;20288;-78
2023/09/27 08:05:13;;;;;;;9.87;8.73;;;14.30;99.90;;;;;;4974096;28;20170;-76
2023/09/27 08:07:40;;;;;;;12.47;9.53;;;14.50;99.90;;;;;;4978805;28;20245;-79
2023/09/27 08:10:07;;;;;;;10.73;9.00;;;14.60;99.90;;;;;;4985859;28;20206;-78
2023/09/27 08:12:34;;;;;;;12.77;10.07;;;14.70;99.90;;;;;;4978058;28;20691;-76
2023/09/27 08:15:00;;;;;;;9.83;8.83;;;14.80;99.90;;;;;;4976480;28;20228;-78
2023/09/27 08:17:26;;;;;;;12.57;8.97;;;14.90;99.90;;;;;;4977000;28;20555;-80
2023/09/27 08:19:52;;;;;;;10.93;8.47;;;15.00;99.90;;;;;;4976123;28;20182;-76
2023/09/27 08:22:18;;;;;;;12.57;7.93;;;15.10;99.90;;;;;;4973368;28;20208;-76
2023/09/27 08:24:43;;;;;;;9.43;7.30;;;15.20;99.90;;;;;;4973283;28;20182;-76
2023/09/27 08:27:09;;;;;;;11.83;7.70;;;15.30;99.90;;;;;;4973343;28;20233;-76
2023/09/27 08:29:35;;;;;;;10.37;6.77;;;15.50;99.90;;;;;;4972270;28;20182;-76
2023/09/27 08:32:00;;;;;;;8.57;6.60;;;15.50;99.90;;;;;;4973059;28;20187;-76
2023/09/27 08:34:26;;;;;;;10.67;6.13;;;15.60;99.90;;;;;;4973330;28;20178;-76
2023/09/27 08:36:52;;;;;;;10.37;5.93;;;15.60;99.90;;;;;;4973355;28;20542;-77
2023/09/27 08:39:18;;;;;;;7.27;5.23;;;15.70;99.90;;;;;;4956933;28;20202;-77
2023/09/27 08:41:44;;;;;;;8.50;4.30;;;15.70;99.90;;;;;;4952414;28;20195;-76
2023/09/27 08:44:11;;;;;;;6.83;4.67;;;15.70;99.90;;;;;;4953832;29;20170;-76
2023/09/27 08:46:38;;;;;;;5.77;5.03;;;15.80;99.90;;;;;;4952662;28;20225;-76
2023/09/27 08:49:04;;;;;;;6.10;4.80;;;15.90;99.90;;;;;;4965603;28;20709;-76
2023/09/27 08:51:30;;;;;;;10.80;4.30;;;16.00;99.90;;;;;;4971986;28;20300;-76
2023/09/27 08:53:56;;;;;;;5.33;3.90;;;16.00;99.90;;;;;;4973027;28;20647;-76
2023/09/27 08:56:23;;;;;;;7.17;4.20;;;16.10;99.90;;;;;;4973324;28;20173;-76
2023/09/27 08:58:49;;;;;;;8.57;4.13;;;16.20;99.90;;;;;;4972166;28;20216;-76
2023/09/27 09:01:16;;;;;;;6.53;4.30;;;16.20;99.90;;;;;;4973228;28;20174;-77
2023/09/27 09:03:42;;;;;;;5.90;4.20;;;16.30;99.90;;;;;;4971635;28;20182;-76
2023/09/27 09:06:12;;;;;;;5.37;3.90;;;16.40;99.90;;;;;;4971755;28;20281;-77
2023/09/27 09:08:41;;;;;;;5.30;3.63;;;16.50;99.90;;;;;;4971491;28;20182;-76
2023/09/27 09:11:13;;;;;;;3.83;3.23;;;16.60;99.90;;;;;;4971520;28;20206;-76
2023/09/27 09:14:22;;;;;;;4.70;3.60;;;16.70;99.90;;;;;;4971629;28;20174;-78
2023/09/27 09:16:52;;;;;;;5.43;3.57;;;16.80;99.90;;;;;;4915580;29;20187;-79
2023/09/27 09:19:22;;;;;;;4.10;3.57;;;16.90;99.90;;;;;;4964928;28;20205;-78
2023/09/27 09:21:56;;;;;;;5.83;3.90;;;17.00;99.90;;;;;;4971950;28;20202;-76
2023/09/27 09:24:21;;;;;;;7.60;3.30;;;17.20;99.90;;;;;;4972298;28;20225;-77
2023/09/27 09:26:47;;;;;;;3.87;3.17;;;17.30;99.90;;;;;;4972515;28;20182;-77
2023/09/27 09:29:12;;;;;;;5.20;3.80;;;17.40;99.90;;;;;;4958686;28;20187;-77
2023/09/27 09:31:38;;;;;;;8.80;3.23;;;17.50;99.90;;;;;;4952084;28;20215;-77
2023/09/27 09:34:08;;;;;;;5.43;3.00;;;17.50;99.90;;;;;;4952439;28;20187;-77
2023/09/27 09:36:35;;;;;;;7.90;3.83;;;17.60;99.90;;;;;;4952550;28;20214;-77
2023/09/27 09:39:14;;;;;;;3.90;3.07;;;17.70;99.90;;;;;;4964055;28;20198;-77
2023/09/27 09:41:51;;;;;;;4.63;2.70;;;17.70;99.90;;;;;;4971694;28;20213;-77
2023/09/27 09:44:20;;;;;;;5.73;3.20;;;17.80;99.90;;;;;;4974894;28;20268;-77
2023/09/27 09:46:47;;;;;;;4.47;2.93;;;17.80;99.90;;;;;;4973980;28;20186;-77
2023/09/27 09:49:16;;;;;;;4.70;2.80;;;17.90;99.90;;;;;;4975272;28;20547;-77
2023/09/27 09:51:46;;;;;;;3.37;2.67;;;17.90;99.90;;;;;;4974674;28;20337;-77
2023/09/27 09:54:36;;;;;;;4.73;3.00;;;18.00;99.90;;;;;;4974344;28;20189;-77
2023/09/27 09:57:05;;;;;;;4.63;2.80;;;18.10;99.90;;;;;;4976290;28;20166;-77
2023/09/27 09:59:41;;;;;;;5.23;2.80;;;18.20;99.90;;;;;;4974958;28;20186;-77
2023/09/27 10:02:23;;;;;;;5.80;3.20;;;18.30;99.90;;;;;;4976207;28;20194;-77
2023/09/27 10:04:55;;;;;;;3.47;2.77;;;18.30;99.90;;;;;;4976537;28;20253;-77
2023/09/27 10:07:21;;;;;;;3.80;2.70;;;18.40;99.90;;;;;;4976797;28;20155;-77
2023/09/27 10:09:49;;;;;;;3.20;2.53;;;18.60;99.90;;;;;;4974467;28;20340;-77
2023/09/27 10:12:15;;;;;;;4.07;2.80;;;18.70;99.90;;;;;;4976488;28;20202;-78
2023/09/27 10:14:42;;;;;;;4.30;2.37;;;18.90;99.90;;;;;;4974156;28;20218;-75
2023/09/27 10:17:26;;;;;;;8.53;2.90;;;19.10;99.90;;;;;;4974964;28;20186;-78
2023/09/27 10:20:12;;;;;;;5.77;2.73;;;19.30;99.90;;;;;;4975273;28;20189;-76
2023/09/27 10:22:42;;;;;;;3.70;2.77;;;19.50;99.90;;;;;;4974752;28;20280;-76
2023/09/27 10:25:31;;;;;;;6.80;2.43;;;19.70;99.90;;;;;;4975633;28;20178;-76
2023/09/27 10:27:59;;;;;;;5.67;2.70;;;19.80;99.90;;;;;;4966838;28;20273;-76
2023/09/27 10:30:25;;;;;;;6.50;2.70;;;19.90;99.90;;;;;;4974151;28;20208;-76
2023/09/27 10:33:12;;;;;;;6.47;2.60;;;19.90;99.90;;;;;;4974677;28;20230;-76
2023/09/27 10:35:38;;;;;;;5.07;2.57;;;20.00;99.90;;;;;;4974241;28;20182;-75
2023/09/27 10:38:06;;;;;;;4.37;2.60;;;20.10;99.90;;;;;;4974001;28;20201;-76
2023/09/27 10:40:42;;;;;;;3.50;2.50;;;20.10;99.90;;;;;;4974119;28;20249;-75
2023/09/27 10:43:07;;;;;;;5.03;2.57;;;20.20;99.90;;;;;;4975336;28;20740;-76
2023/09/27 10:45:33;;;;;;;4.63;2.33;;;20.30;99.90;;;;;;4973982;28;20189;-76
2023/09/27 10:48:25;;;;;;;4.63;2.07;;;20.20;1.00;;;;;;4973904;28;20204;-76
2023/09/27 10:50:52;;;;;;;3.73;2.20;;;20.30;1.00;;;;;;4971853;28;20308;-75
2023/09/27 10:53:18;;;;;;;3.67;2.93;;;20.40;1.00;;;;;;4973810;28;20626;-75
2023/09/27 10:55:44;;;;;;;3.80;2.40;;;20.40;1.00;;;;;;4974970;28;20181;-75
2023/09/27 10:58:15;;;;;;;5.77;3.07;;;20.60;1.00;;;;;;4975094;28;20186;-76
2023/09/27 11:00:57;;;;;;;5.80;2.50;;;20.60;1.00;;;;;;4974392;28;20198;-78
2023/09/27 11:03:29;;;;;;;3.30;2.53;;;20.60;99.90;;;;;;4955556;28;20671;-76
2023/09/27 11:05:58;;;;;;;4.97;2.40;;;20.60;99.90;;;;;;4954384;29;20179;-75
2023/09/27 11:08:24;;;;;;;3.63;2.60;;;20.70;99.90;;;;;;4954208;28;20670;-77
2023/09/27 11:10:52;;;;;;;4.63;2.70;;;20.70;99.90;;;;;;4966966;28;20209;-76
2023/09/27 11:13:19;;;;;;;5.17;2.57;;;20.70;99.90;;;;;;4974874;28;20289;-75
2023/09/27 11:15:45;;;;;;;5.20;2.50;;;20.70;99.90;;;;;;4973456;28;20178;-77
2023/09/27 11:18:11;;;;;;;5.77;2.57;;;20.70;1.00;;;;;;4973649;28;20508;-77
2023/09/27 11:20:37;;;;;;;8.93;3.53;;;20.90;99.90;;;;;;4972304;28;20229;-78
2023/09/27 11:23:03;;;;;;;4.60;2.87;;;21.00;99.90;;;;;;4973285;28;20252;-77
2023/09/27 11:25:30;;;;;;;5.33;2.70;;;20.90;99.90;;;;;;4973503;28;20190;-77
2023/09/27 11:27:56;;;;;;;6.77;2.27;;;20.90;99.90;;;;;;4974919;28;20594;-77
2023/09/27 11:30:32;;;;;;;5.83;2.50;;;21.00;1.00;;;;;;4974581;28;20289;-76
2023/09/27 11:33:06;;;;;;;6.27;2.63;;;20.90;99.90;;;;;;4973242;28;20221;-77
2023/09/27 11:35:32;;;;;;;3.47;2.40;;;21.00;99.90;;;;;;4975229;28;20180;-77
2023/09/27 11:38:09;;;;;;;5.07;2.40;;;20.90;1.00;;;;;;4978023;28;20655;-76
2023/09/27 11:40:34;;;;;;;5.63;2.57;;;21.00;99.90;;;;;;4974390;28;20174;-76
2023/09/27 11:43:01;;;;;;;3.73;2.50;;;21.00;99.90;;;;;;4974223;28;20692;-77
2023/09/27 11:45:27;;;;;;;4.03;2.30;;;21.00;99.90;;;;;;4974180;28;20186;-77
2023/09/27 11:47:52;;;;;;;4.20;2.40;;;21.20;99.90;;;;;;4974079;28;20708;-76
2023/09/27 11:50:21;;;;;;;6.03;2.60;;;21.10;1.00;;;;;;4972716;28;20232;-77
2023/09/27 11:52:47;;;;;;;3.13;2.43;;;21.30;1.00;;;;;;4972114;28;21575;-78
2023/09/27 11:55:16;;;;;;;3.63;2.23;;;21.30;1.00;;;;;;4972750;28;20185;-77
2023/09/27 11:57:43;;;;;;;5.50;2.60;;;21.30;1.00;;;;;;4972810;28;20174;-77
2023/09/27 12:00:09;;;;;;;3.10;2.27;;;21.30;1.00;;;;;;4976145;28;20542;-78
2023/09/27 12:02:35;;;;;;;4.50;2.37;;;21.50;99.90;;;;;;4975087;28;20198;-77
2023/09/27 12:05:01;;;;;;;6.33;2.47;;;21.60;1.00;;;;;;4973941;28;20709;-76
2023/09/27 12:07:27;;;;;;;5.33;2.13;;;21.60;99.90;;;;;;4973380;28;20189;-76
2023/09/27 12:09:54;;;;;;;4.30;2.00;;;21.80;99.90;;;;;;4973679;28;20202;-76
2023/09/27 12:12:20;;;;;;;2.53;1.97;;;21.80;1.00;;;;;;4972431;28;20208;-76
2023/09/27 12:14:45;;;;;;;7.50;2.30;;;22.00;1.00;;;;;;4973728;28;20182;-76
2023/09/27 12:17:11;;;;;;;10.83;1.93;;;22.10;60.90;;;;;;4972294;28;20178;-76
2023/09/27 12:19:37;;;;;;;2.60;2.20;;;22.20;99.90;;;;;;4973605;28;20258;-75
2023/09/27 12:22:03;;;;;;;3.17;1.97;;;22.30;99.90;;;;;;4972022;28;20280;-75
2023/09/27 12:24:30;;;;;;;2.40;1.80;;;22.40;99.90;;;;;;4973486;28;20166;-76
2023/09/27 12:26:56;;;;;;;4.07;2.20;;;22.50;99.90;;;;;;4972142;28;20202;-76
2023/09/27 12:29:21;;;;;;;3.93;1.90;;;22.70;99.90;;;;;;4972293;28;20206;-76
2023/09/27 12:31:47;;;;;;;3.07;2.07;;;22.90;98.30;;;;;;4973421;28;20284;-76
2023/09/27 12:34:12;;;;;;;3.33;1.73;;;22.80;1.00;;;;;;4973896;28;20593;-76
2023/09/27 12:36:38;;;;;;;5.23;2.27;;;22.80;99.90;;;;;;4973554;28;20182;-78
2023/09/27 12:39:03;;;;;;;1.93;1.77;;;22.70;88.30;;;;;;4973897;28;20193;-78
2023/09/27 12:41:29;;;;;;;3.13;2.03;;;22.80;1.00;;;;;;4973268;28;20202;-77
2023/09/27 12:43:54;;;;;;;2.90;1.93;;;22.80;1.00;;;;;;4973313;28;20293;-77
2023/09/27 12:46:20;;;;;;;3.37;2.00;;;22.90;1.00;;;;;;4973048;28;20178;-78
2023/09/27 12:48:46;;;;;;;2.73;1.93;;;22.80;1.00;;;;;;4973310;28;20249;-78